sensor_id;sensor_type;location;lat;lon;timestamp;pressure;altitude;pressure_sealevel;temperature;humidity
29121;BME280;16191;49.548;8.658;2023-05-25T00:01:38;100937.97;;;11.21;72.99
29121;BME280;16191;49.548;8.658;2023-05-25T00:04:04;100939.00;;;11.16;73.55
29121;BME280;16191;49.548;8.658;2023-05-25T00:06:31;100940.72;;;11.17;73.60
29121;BME280;16191;49.548;8.658;2023-05-25T00:08:58;100945.03;;;11.18;73.39
29121;BME280;16191;49.548;8.658;2023-05-25T00:11:25;100937.25;;;11.16;72.71
29121;BME280;16191;49.548;8.658;2023-05-25T00:13:52;100943.41;;;11.14;73.00
29121;BME280;16191;49.548;8.658;2023-05-25T00:16:19;100945.41;;;11.06;73.48
29121;BME280;16191;49.548;8.658;2023-05-25T00:18:46;100938.16;;;11.15;73.48
29121;BME280;16191;49.548;8.658;2023-05-25T00:21:14;100938.81;;;11.22;72.71
29121;BME280;16191;49.548;8.658;2023-05-25T00:23:41;100935.72;;;11.09;73.32
29121;BME280;16191;49.548;8.658;2023-05-25T00:26:08;100932.72;;;10.95;75.03
29121;BME280;16191;49.548;8.658;2023-05-25T00:28:35;100935.03;;;11.04;74.71
29121;BME280;16191;49.548;8.658;2023-05-25T00:31:02;100930.81;;;11.00;73.87
29121;BME280;16191;49.548;8.658;2023-05-25T00:33:28;100930.59;;;11.06;73.77
29121;BME280;16191;49.548;8.658;2023-05-25T00:35:55;100924.47;;;11.07;73.66
29121;BME280;16191;49.548;8.658;2023-05-25T00:38:22;100925.31;;;11.08;73.54
29121;BME280;16191;49.548;8.658;2023-05-25T00:40:54;100928.13;;;11.03;73.17
29121;BME280;16191;49.548;8.658;2023-05-25T00:43:20;100933.34;;;11.03;74.21
29121;BME280;16191;49.548;8.658;2023-05-25T00:45:49;100929.19;;;10.96;75.08
29121;BME280;16191;49.548;8.658;2023-05-25T00:48:19;100935.03;;;11.04;73.68
29121;BME280;16191;49.548;8.658;2023-05-25T00:50:45;100933.56;;;10.95;74.79
29121;BME280;16191;49.548;8.658;2023-05-25T00:58:38;100944.78;;;10.99;74.76
29121;BME280;16191;49.548;8.658;2023-05-25T01:01:08;100943.06;;;10.98;74.61
29121;BME280;16191;49.548;8.658;2023-05-25T01:03:38;100950.22;;;10.91;76.44
29121;BME280;16191;49.548;8.658;2023-05-25T01:06:11;100951.25;;;10.86;77.24
29121;BME280;16191;49.548;8.658;2023-05-25T01:08:41;100951.22;;;10.87;77.16
29121;BME280;16191;49.548;8.658;2023-05-25T01:11:35;100954.69;;;10.60;80.12
29121;BME280;16191;49.548;8.658;2023-05-25T01:14:22;100951.66;;;10.74;79.52
29121;BME280;16191;49.548;8.658;2023-05-25T01:17:10;100953.22;;;10.79;78.84
29121;BME280;16191;49.548;8.658;2023-05-25T01:19:57;100952.72;;;10.67;80.24
29121;BME280;16191;49.548;8.658;2023-05-25T01:23:09;100956.19;;;10.67;80.81
29121;BME280;16191;49.548;8.658;2023-05-25T01:25:58;100961.44;;;10.65;81.96
29121;BME280;16191;49.548;8.658;2023-05-25T01:28:34;100959.22;;;10.53;82.67
29121;BME280;16191;49.548;8.658;2023-05-25T01:31:07;100962.00;;;10.47;83.91
29121;BME280;16191;49.548;8.658;2023-05-25T01:33:35;100959.25;;;10.52;84.08
29121;BME280;16191;49.548;8.658;2023-05-25T01:36:02;100965.88;;;10.34;86.16
29121;BME280;16191;49.548;8.658;2023-05-25T01:38:29;100960.56;;;10.37;86.62
29121;BME280;16191;49.548;8.658;2023-05-25T01:40:56;100967.78;;;10.27;88.63
29121;BME280;16191;49.548;8.658;2023-05-25T01:43:23;100963.34;;;10.31;90.07
29121;BME280;16191;49.548;8.658;2023-05-25T01:45:54;100965.38;;;10.20;92.20
29121;BME280;16191;49.548;8.658;2023-05-25T01:48:41;100967.34;;;10.12;95.25
29121;BME280;16191;49.548;8.658;2023-05-25T01:54:15;100961.00;;;10.20;94.75
29121;BME280;16191;49.548;8.658;2023-05-25T01:56:44;100959.44;;;10.15;96.75
29121;BME280;16191;49.548;8.658;2023-05-25T01:59:14;100961.22;;;10.13;98.14
29121;BME280;16191;49.548;8.658;2023-05-25T02:01:42;100964.84;;;10.07;98.96
29121;BME280;16191;49.548;8.658;2023-05-25T02:04:10;100969.00;;;10.14;97.06
29121;BME280;16191;49.548;8.658;2023-05-25T02:06:37;100963.31;;;9.98;100.00
29121;BME280;16191;49.548;8.658;2023-05-25T02:09:05;100969.41;;;9.99;100.00
29121;BME280;16191;49.548;8.658;2023-05-25T02:11:31;100964.25;;;9.96;100.00
29121;BME280;16191;49.548;8.658;2023-05-25T02:13:58;100967.06;;;9.90;100.00
29121;BME280;16191;49.548;8.658;2023-05-25T02:16:26;100963.63;;;9.88;100.00
29121;BME280;16191;49.548;8.658;2023-05-25T02:18:58;100971.38;;;9.91;100.00
29121;BME280;16191;49.548;8.658;2023-05-25T02:21:25;100968.09;;;9.83;100.00
29121;BME280;16191;49.548;8.658;2023-05-25T02:23:52;100970.59;;;9.87;100.00
29121;BME280;16191;49.548;8.658;2023-05-25T02:26:19;100967.50;;;9.73;100.00
29121;BME280;16191;49.548;8.658;2023-05-25T02:28:46;100977.25;;;9.65;100.00
29121;BME280;16191;49.548;8.658;2023-05-25T02:31:13;100972.22;;;9.57;100.00
29121;BME280;16191;49.548;8.658;2023-05-25T02:33:39;100973.78;;;9.65;100.00
29121;BME280;16191;49.548;8.658;2023-05-25T02:36:06;100965.31;;;9.56;100.00
29121;BME280;16191;49.548;8.658;2023-05-25T02:38:33;100964.44;;;9.56;100.00
29121;BME280;16191;49.548;8.658;2023-05-25T02:41:00;100955.94;;;9.49;100.00
29121;BME280;16191;49.548;8.658;2023-05-25T02:43:26;100958.63;;;9.46;100.00
29121;BME280;16191;49.548;8.658;2023-05-25T02:45:53;100955.31;;;9.40;100.00
29121;BME280;16191;49.548;8.658;2023-05-25T02:48:20;100952.66;;;9.41;100.00
29121;BME280;16191;49.548;8.658;2023-05-25T02:50:47;100951.00;;;9.39;100.00
29121;BME280;16191;49.548;8.658;2023-05-25T02:53:13;100946.75;;;9.35;100.00
29121;BME280;16191;49.548;8.658;2023-05-25T02:55:40;100947.75;;;9.31;100.00
29121;BME280;16191;49.548;8.658;2023-05-25T02:58:14;100949.59;;;9.25;100.00
29121;BME280;16191;49.548;8.658;2023-05-25T03:00:59;100954.75;;;9.27;100.00
29121;BME280;16191;49.548;8.658;2023-05-25T03:03:26;100959.16;;;9.25;100.00
29121;BME280;16191;49.548;8.658;2023-05-25T03:05:55;100966.19;;;9.21;100.00
29121;BME280;16191;49.548;8.658;2023-05-25T03:08:23;100963.56;;;9.21;100.00
29121;BME280;16191;49.548;8.658;2023-05-25T03:10:49;100964.28;;;9.28;100.00
29121;BME280;16191;49.548;8.658;2023-05-25T03:13:16;100961.78;;;9.23;100.00
29121;BME280;16191;49.548;8.658;2023-05-25T03:15:43;100968.66;;;9.27;100.00
29121;BME280;16191;49.548;8.658;2023-05-25T03:18:10;100967.03;;;9.22;100.00
29121;BME280;16191;49.548;8.658;2023-05-25T03:20:37;100972.56;;;9.08;100.00
29121;BME280;16191;49.548;8.658;2023-05-25T03:23:04;100973.44;;;9.09;100.00
29121;BME280;16191;49.548;8.658;2023-05-25T03:25:32;100967.47;;;9.04;100.00
29121;BME280;16191;49.548;8.658;2023-05-25T03:27:59;100974.34;;;9.06;100.00
29121;BME280;16191;49.548;8.658;2023-05-25T03:30:26;100958.91;;;8.99;100.00
29121;BME280;16191;49.548;8.658;2023-05-25T03:32:53;100963.19;;;9.01;100.00
29121;BME280;16191;49.548;8.658;2023-05-25T03:35:19;100968.22;;;9.09;100.00
29121;BME280;16191;49.548;8.658;2023-05-25T03:37:46;100969.16;;;9.06;100.00
29121;BME280;16191;49.548;8.658;2023-05-25T03:40:13;100976.03;;;9.09;100.00
29121;BME280;16191;49.548;8.658;2023-05-25T03:42:40;100981.19;;;9.10;100.00
29121;BME280;16191;49.548;8.658;2023-05-25T03:45:07;100977.06;;;9.02;100.00
29121;BME280;16191;49.548;8.658;2023-05-25T03:47:36;100978.97;;;8.93;100.00
29121;BME280;16191;49.548;8.658;2023-05-25T03:50:03;100989.31;;;8.97;100.00
29121;BME280;16191;49.548;8.658;2023-05-25T03:52:32;100993.59;;;8.99;100.00
29121;BME280;16191;49.548;8.658;2023-05-25T03:55:00;100995.25;;;9.03;100.00
29121;BME280;16191;49.548;8.658;2023-05-25T03:57:27;100997.16;;;8.95;100.00
29121;BME280;16191;49.548;8.658;2023-05-25T03:59:54;101000.34;;;9.08;100.00
29121;BME280;16191;49.548;8.658;2023-05-25T04:02:20;101001.28;;;9.05;100.00
29121;BME280;16191;49.548;8.658;2023-05-25T04:04:47;101008.38;;;8.97;100.00
29121;BME280;16191;49.548;8.658;2023-05-25T04:07:18;101014.41;;;8.99;100.00
29121;BME280;16191;49.548;8.658;2023-05-25T04:09:45;101015.09;;;9.09;100.00
29121;BME280;16191;49.548;8.658;2023-05-25T04:12:11;101010.56;;;9.15;100.00
29121;BME280;16191;49.548;8.658;2023-05-25T04:14:38;101013.16;;;9.17;100.00
29121;BME280;16191;49.548;8.658;2023-05-25T04:17:05;101015.66;;;9.21;100.00
29121;BME280;16191;49.548;8.658;2023-05-25T04:19:31;101026.97;;;9.20;100.00
29121;BME280;16191;49.548;8.658;2023-05-25T04:21:58;101021.88;;;9.14;100.00
29121;BME280;16191;49.548;8.658;2023-05-25T04:24:25;101019.22;;;9.17;100.00
29121;BME280;16191;49.548;8.658;2023-05-25T04:26:53;101026.94;;;9.22;100.00
29121;BME280;16191;49.548;8.658;2023-05-25T04:29:22;101028.09;;;9.09;100.00
29121;BME280;16191;49.548;8.658;2023-05-25T04:32:05;101030.41;;;9.21;100.00
29121;BME280;16191;49.548;8.658;2023-05-25T04:34:53;101028.53;;;9.27;100.00
29121;BME280;16191;49.548;8.658;2023-05-25T04:37:23;101029.31;;;9.31;100.00
29121;BME280;16191;49.548;8.658;2023-05-25T04:39:53;101030.09;;;9.35;100.00
29121;BME280;16191;49.548;8.658;2023-05-25T04:42:20;101029.13;;;9.39;100.00
29121;BME280;16191;49.548;8.658;2023-05-25T04:44:50;101033.28;;;9.47;100.00
29121;BME280;16191;49.548;8.658;2023-05-25T04:47:21;101033.28;;;9.47;100.00
29121;BME280;16191;49.548;8.658;2023-05-25T04:49:52;101033.94;;;9.55;100.00
29121;BME280;16191;49.548;8.658;2023-05-25T04:52:18;101043.53;;;9.53;100.00
29121;BME280;16191;49.548;8.658;2023-05-25T04:54:45;101041.66;;;9.60;100.00
29121;BME280;16191;49.548;8.658;2023-05-25T04:57:13;101034.50;;;9.68;100.00
29121;BME280;16191;49.548;8.658;2023-05-25T04:59:40;101037.16;;;9.67;100.00
29121;BME280;16191;49.548;8.658;2023-05-25T05:02:07;101039.50;;;9.76;100.00
29121;BME280;16191;49.548;8.658;2023-05-25T05:04:33;101041.75;;;9.91;100.00
29121;BME280;16191;49.548;8.658;2023-05-25T05:07:03;101037.44;;;9.90;100.00
29121;BME280;16191;49.548;8.658;2023-05-25T05:09:31;101045.00;;;9.99;100.00
29121;BME280;16191;49.548;8.658;2023-05-25T05:11:59;101038.66;;;10.09;100.00
29121;BME280;16191;49.548;8.658;2023-05-25T05:14:27;101035.94;;;10.14;100.00
29121;BME280;16191;49.548;8.658;2023-05-25T05:16:54;101037.50;;;10.21;100.00
29121;BME280;16191;49.548;8.658;2023-05-25T05:19:21;101035.50;;;10.32;100.00
29121;BME280;16191;49.548;8.658;2023-05-25T05:21:48;101035.41;;;10.35;100.00
29121;BME280;16191;49.548;8.658;2023-05-25T05:24:16;101039.69;;;10.38;100.00
29121;BME280;16191;49.548;8.658;2023-05-25T05:26:43;101040.94;;;10.55;100.00
29121;BME280;16191;49.548;8.658;2023-05-25T05:29:42;101035.38;;;10.66;100.00
29121;BME280;16191;49.548;8.658;2023-05-25T05:32:08;101038.34;;;10.83;100.00
29121;BME280;16191;49.548;8.658;2023-05-25T05:34:36;101037.38;;;10.87;100.00
29121;BME280;16191;49.548;8.658;2023-05-25T05:37:07;101039.91;;;10.90;100.00
29121;BME280;16191;49.548;8.658;2023-05-25T05:39:34;101038.97;;;10.93;99.23
29121;BME280;16191;49.548;8.658;2023-05-25T05:42:01;101039.56;;;11.03;98.43
29121;BME280;16191;49.548;8.658;2023-05-25T05:44:28;101035.22;;;11.02;99.55
29121;BME280;16191;49.548;8.658;2023-05-25T05:46:56;101033.13;;;11.13;98.54
29121;BME280;16191;49.548;8.658;2023-05-25T05:49:27;101037.75;;;11.32;99.09
29121;BME280;16191;49.548;8.658;2023-05-25T05:51:55;101038.69;;;11.30;95.06
29121;BME280;16191;49.548;8.658;2023-05-25T05:54:21;101031.47;;;11.38;95.59
29121;BME280;16191;49.548;8.658;2023-05-25T05:56:49;101030.34;;;11.47;96.20
29121;BME280;16191;49.548;8.658;2023-05-25T05:59:16;101035.31;;;11.54;94.97
29121;BME280;16191;49.548;8.658;2023-05-25T06:01:43;101035.91;;;11.62;94.81
29121;BME280;16191;49.548;8.658;2023-05-25T06:04:10;101039.06;;;11.72;93.72
29121;BME280;16191;49.548;8.658;2023-05-25T06:06:36;101038.53;;;11.90;92.33
29121;BME280;16191;49.548;8.658;2023-05-25T06:09:06;101040.38;;;11.87;88.17
29121;BME280;16191;49.548;8.658;2023-05-25T06:11:34;101031.41;;;11.94;88.79
29121;BME280;16191;49.548;8.658;2023-05-25T06:14:03;101037.44;;;12.21;87.34
29121;BME280;16191;49.548;8.658;2023-05-25T06:16:29;101044.69;;;12.38;87.62
29121;BME280;16191;49.548;8.658;2023-05-25T06:18:56;101037.94;;;12.32;87.58
29121;BME280;16191;49.548;8.658;2023-05-25T06:21:23;101042.13;;;12.36;86.83
29121;BME280;16191;49.548;8.658;2023-05-25T06:23:50;101051.47;;;12.68;86.30
29121;BME280;16191;49.548;8.658;2023-05-25T06:26:17;101049.75;;;12.67;84.09
29121;BME280;16191;49.548;8.658;2023-05-25T06:28:44;101055.41;;;13.01;81.47
29121;BME280;16191;49.548;8.658;2023-05-25T06:31:12;101049.09;;;13.07;80.24
29121;BME280;16191;49.548;8.658;2023-05-25T06:33:38;101052.28;;;13.17;79.76
29121;BME280;16191;49.548;8.658;2023-05-25T06:36:07;101051.09;;;13.00;78.23
29121;BME280;16191;49.548;8.658;2023-05-25T06:38:34;101058.63;;;13.10;79.26
29121;BME280;16191;49.548;8.658;2023-05-25T06:41:01;101054.69;;;13.21;79.10
29121;BME280;16191;49.548;8.658;2023-05-25T06:43:30;101057.53;;;13.38;76.72
29121;BME280;16191;49.548;8.658;2023-05-25T06:46:11;101070.38;;;13.66;78.34
29121;BME280;16191;49.548;8.658;2023-05-25T06:48:43;101068.41;;;13.71;76.00
29121;BME280;16191;49.548;8.658;2023-05-25T06:51:10;101068.09;;;14.01;74.08
29121;BME280;16191;49.548;8.658;2023-05-25T06:56:18;101057.72;;;14.18;72.61
29121;BME280;16191;49.548;8.658;2023-05-25T06:58:45;101057.66;;;14.20;72.56
29121;BME280;16191;49.548;8.658;2023-05-25T07:01:11;101050.66;;;14.40;73.15
29121;BME280;16191;49.548;8.658;2023-05-25T07:03:38;101063.44;;;14.48;72.19
29121;BME280;16191;49.548;8.658;2023-05-25T07:06:05;101066.88;;;14.50;70.53
29121;BME280;16191;49.548;8.658;2023-05-25T07:08:32;101067.56;;;14.54;71.18
29121;BME280;16191;49.548;8.658;2023-05-25T07:10:58;101071.22;;;14.70;70.37
29121;BME280;16191;49.548;8.658;2023-05-25T07:13:25;101069.75;;;14.83;67.91
29121;BME280;16191;49.548;8.658;2023-05-25T07:15:52;101065.22;;;15.05;69.34
29121;BME280;16191;49.548;8.658;2023-05-25T07:18:18;101071.47;;;15.03;67.80
29121;BME280;16191;49.548;8.658;2023-05-25T07:20:45;101065.88;;;15.11;67.39
29121;BME280;16191;49.548;8.658;2023-05-25T07:23:13;101068.81;;;15.22;67.57
29121;BME280;16191;49.548;8.658;2023-05-25T07:25:40;101069.91;;;15.36;67.42
29121;BME280;16191;49.548;8.658;2023-05-25T07:28:07;101066.59;;;15.50;66.75
29121;BME280;16191;49.548;8.658;2023-05-25T07:30:34;101062.19;;;15.51;68.12
29121;BME280;16191;49.548;8.658;2023-05-25T07:33:00;101065.13;;;15.81;67.74
29121;BME280;16191;49.548;8.658;2023-05-25T07:35:27;101070.22;;;15.66;65.31
29121;BME280;16191;49.548;8.658;2023-05-25T07:37:58;101062.13;;;15.88;65.76
29121;BME280;16191;49.548;8.658;2023-05-25T07:40:25;101058.63;;;16.05;64.78
29121;BME280;16191;49.548;8.658;2023-05-25T07:42:52;101067.38;;;16.05;61.98
29121;BME280;16191;49.548;8.658;2023-05-25T07:45:19;101064.38;;;15.96;62.81
29121;BME280;16191;49.548;8.658;2023-05-25T07:47:46;101067.47;;;16.21;62.79
29121;BME280;16191;49.548;8.658;2023-05-25T07:50:14;101059.94;;;16.31;63.11
29121;BME280;16191;49.548;8.658;2023-05-25T07:52:41;101065.69;;;16.39;62.77
29121;BME280;16191;49.548;8.658;2023-05-25T07:55:08;101064.00;;;16.54;61.67
29121;BME280;16191;49.548;8.658;2023-05-25T07:57:35;101071.84;;;16.55;61.54
29121;BME280;16191;49.548;8.658;2023-05-25T08:00:02;101069.81;;;16.60;61.83
29121;BME280;16191;49.548;8.658;2023-05-25T08:02:38;101071.75;;;16.74;60.67
29121;BME280;16191;49.548;8.658;2023-05-25T08:05:05;101064.22;;;16.84;61.51
29121;BME280;16191;49.548;8.658;2023-05-25T08:07:32;101066.69;;;17.18;60.11
29121;BME280;16191;49.548;8.658;2023-05-25T08:09:59;101065.84;;;17.18;60.79
29121;BME280;16191;49.548;8.658;2023-05-25T08:12:26;101074.44;;;17.21;60.65
29121;BME280;16191;49.548;8.658;2023-05-25T08:15:12;101068.59;;;17.32;58.95
29121;BME280;16191;49.548;8.658;2023-05-25T08:17:39;101066.97;;;17.45;59.40
29121;BME280;16191;49.548;8.658;2023-05-25T08:20:07;101066.72;;;17.65;58.07
29121;BME280;16191;49.548;8.658;2023-05-25T08:22:34;101073.06;;;17.61;57.67
29121;BME280;16191;49.548;8.658;2023-05-25T08:25:03;101070.03;;;17.69;56.81
29121;BME280;16191;49.548;8.658;2023-05-25T08:27:30;101069.06;;;17.86;56.98
29121;BME280;16191;49.548;8.658;2023-05-25T08:30:01;101067.19;;;18.18;56.38
29121;BME280;16191;49.548;8.658;2023-05-25T08:32:28;101075.78;;;17.75;54.57
29121;BME280;16191;49.548;8.658;2023-05-25T08:34:54;101064.84;;;17.97;56.46
29121;BME280;16191;49.548;8.658;2023-05-25T08:37:21;101074.03;;;18.20;56.05
29121;BME280;16191;49.548;8.658;2023-05-25T08:39:50;101069.91;;;18.60;55.74
29121;BME280;16191;49.548;8.658;2023-05-25T08:42:16;101075.03;;;18.47;55.95
29121;BME280;16191;49.548;8.658;2023-05-25T08:44:43;101071.78;;;18.72;55.53
29121;BME280;16191;49.548;8.658;2023-05-25T08:47:10;101074.16;;;18.77;55.33
29121;BME280;16191;49.548;8.658;2023-05-25T08:49:38;101072.53;;;18.74;54.18
29121;BME280;16191;49.548;8.658;2023-05-25T08:52:09;101074.03;;;18.93;54.04
29121;BME280;16191;49.548;8.658;2023-05-25T08:54:36;101069.75;;;19.18;53.32
29121;BME280;16191;49.548;8.658;2023-05-25T08:57:14;101066.66;;;19.53;52.97
29121;BME280;16191;49.548;8.658;2023-05-25T09:00:07;101073.50;;;19.43;52.67
29121;BME280;16191;49.548;8.658;2023-05-25T09:02:53;101077.06;;;19.56;50.99
29121;BME280;16191;49.548;8.658;2023-05-25T09:05:23;101066.00;;;19.76;51.02
29121;BME280;16191;49.548;8.658;2023-05-25T09:07:49;101065.28;;;20.27;51.26
29121;BME280;16191;49.548;8.658;2023-05-25T09:10:17;101075.13;;;20.12;50.53
29121;BME280;16191;49.548;8.658;2023-05-25T09:12:45;101064.22;;;20.29;48.62
29121;BME280;16191;49.548;8.658;2023-05-25T09:15:11;101068.28;;;19.95;48.89
29121;BME280;16191;49.548;8.658;2023-05-25T09:17:39;101071.31;;;20.29;49.88
29121;BME280;16191;49.548;8.658;2023-05-25T09:20:09;101071.13;;;20.32;49.04
29121;BME280;16191;49.548;8.658;2023-05-25T09:22:35;101072.72;;;20.60;48.84
29121;BME280;16191;49.548;8.658;2023-05-25T09:25:05;101072.44;;;20.51;48.99
29121;BME280;16191;49.548;8.658;2023-05-25T09:27:34;101077.66;;;20.13;48.58
29121;BME280;16191;49.548;8.658;2023-05-25T09:30:03;101066.78;;;20.69;48.38
29121;BME280;16191;49.548;8.658;2023-05-25T09:32:30;101066.91;;;20.67;48.52
29121;BME280;16191;49.548;8.658;2023-05-25T09:35:11;101072.84;;;20.71;47.63
29121;BME280;16191;49.548;8.658;2023-05-25T09:37:42;101064.47;;;21.26;47.25
29121;BME280;16191;49.548;8.658;2023-05-25T09:40:10;101062.59;;;21.03;46.82
29121;BME280;16191;49.548;8.658;2023-05-25T09:42:37;101064.56;;;21.37;46.56
29121;BME280;16191;49.548;8.658;2023-05-25T09:45:04;101056.59;;;21.37;44.73
29121;BME280;16191;49.548;8.658;2023-05-25T09:47:31;101060.78;;;21.87;45.64
29121;BME280;16191;49.548;8.658;2023-05-25T09:49:58;101063.88;;;21.70;46.89
29121;BME280;16191;49.548;8.658;2023-05-25T09:52:26;101072.06;;;21.67;45.46
29121;BME280;16191;49.548;8.658;2023-05-25T09:54:52;101069.25;;;21.58;46.00
29121;BME280;16191;49.548;8.658;2023-05-25T09:57:20;101070.97;;;21.70;45.92
29121;BME280;16191;49.548;8.658;2023-05-25T09:59:47;101073.81;;;21.55;46.18
29121;BME280;16191;49.548;8.658;2023-05-25T10:02:13;101068.63;;;22.02;45.26
29121;BME280;16191;49.548;8.658;2023-05-25T10:04:41;101064.19;;;21.89;45.50
29121;BME280;16191;49.548;8.658;2023-05-25T10:07:08;101067.34;;;22.18;45.44
29121;BME280;16191;49.548;8.658;2023-05-25T10:09:38;101064.84;;;22.28;44.36
29121;BME280;16191;49.548;8.658;2023-05-25T10:12:07;101064.84;;;22.39;44.36
29121;BME280;16191;49.548;8.658;2023-05-25T10:14:36;101061.06;;;22.31;44.58
29121;BME280;16191;49.548;8.658;2023-05-25T10:17:04;101074.84;;;22.93;43.82
29121;BME280;16191;49.548;8.658;2023-05-25T10:19:45;101069.22;;;22.74;43.57
29121;BME280;16191;49.548;8.658;2023-05-25T10:22:19;101071.41;;;22.69;43.99
29121;BME280;16191;49.548;8.658;2023-05-25T10:24:53;101075.66;;;23.05;43.57
29121;BME280;16191;49.548;8.658;2023-05-25T10:27:23;101063.31;;;23.04;42.99
29121;BME280;16191;49.548;8.658;2023-05-25T10:29:55;101074.81;;;22.82;43.28
29121;BME280;16191;49.548;8.658;2023-05-25T10:32:23;101070.41;;;23.25;42.54
29121;BME280;16191;49.548;8.658;2023-05-25T10:34:51;101070.75;;;23.43;41.67
29121;BME280;16191;49.548;8.658;2023-05-25T10:37:18;101074.16;;;23.34;42.26
29121;BME280;16191;49.548;8.658;2023-05-25T10:39:45;101070.03;;;23.52;42.12
29121;BME280;16191;49.548;8.658;2023-05-25T10:42:13;101072.03;;;23.71;41.41
29121;BME280;16191;49.548;8.658;2023-05-25T10:44:41;101068.06;;;23.86;41.94
29121;BME280;16191;49.548;8.658;2023-05-25T10:47:08;101073.16;;;23.89;42.05
29121;BME280;16191;49.548;8.658;2023-05-25T10:49:54;101073.66;;;23.83;40.53
29121;BME280;16191;49.548;8.658;2023-05-25T10:52:25;101067.47;;;23.51;41.13
29121;BME280;16191;49.548;8.658;2023-05-25T10:55:00;101064.47;;;23.55;41.91
29121;BME280;16191;49.548;8.658;2023-05-25T10:57:27;101063.09;;;23.61;41.22
29121;BME280;16191;49.548;8.658;2023-05-25T11:00:00;101063.75;;;23.31;41.38
29121;BME280;16191;49.548;8.658;2023-05-25T11:02:29;101064.91;;;23.61;40.49
29121;BME280;16191;49.548;8.658;2023-05-25T11:05:37;101074.91;;;23.79;40.94
29121;BME280;16191;49.548;8.658;2023-05-25T11:08:08;101070.50;;;24.10;40.78
29121;BME280;16191;49.548;8.658;2023-05-25T11:10:49;101059.31;;;23.96;39.89
29121;BME280;16191;49.548;8.658;2023-05-25T11:13:36;101060.97;;;24.29;39.29
29121;BME280;16191;49.548;8.658;2023-05-25T11:18:54;101052.75;;;24.72;38.63
29121;BME280;16191;49.548;8.658;2023-05-25T11:24:00;101063.69;;;24.17;39.06
29121;BME280;16191;49.548;8.658;2023-05-25T11:26:33;101056.59;;;24.48;38.16
29121;BME280;16191;49.548;8.658;2023-05-25T11:29:11;101052.34;;;24.67;37.57
29121;BME280;16191;49.548;8.658;2023-05-25T11:31:38;101039.03;;;24.76;36.99
29121;BME280;16191;49.548;8.658;2023-05-25T11:34:09;101031.84;;;24.67;37.75
29121;BME280;16191;49.548;8.658;2023-05-25T11:36:37;101036.41;;;24.55;37.26
29121;BME280;16191;49.548;8.658;2023-05-25T11:39:04;101029.31;;;24.75;37.04
29121;BME280;16191;49.548;8.658;2023-05-25T11:41:51;101027.94;;;25.11;38.05
29121;BME280;16191;49.548;8.658;2023-05-25T11:44:31;101036.00;;;25.50;36.49
29121;BME280;16191;49.548;8.658;2023-05-25T11:47:07;101029.81;;;25.59;37.02
29121;BME280;16191;49.548;8.658;2023-05-25T11:49:38;101025.72;;;25.36;36.83
29121;BME280;16191;49.548;8.658;2023-05-25T11:52:07;101025.34;;;25.69;35.87
29121;BME280;16191;49.548;8.658;2023-05-25T11:54:34;101016.44;;;25.59;35.38
29121;BME280;16191;49.548;8.658;2023-05-25T11:57:01;101034.72;;;25.44;36.47
29121;BME280;16191;49.548;8.658;2023-05-25T11:59:28;101029.06;;;25.18;36.80
29121;BME280;16191;49.548;8.658;2023-05-25T12:02:02;101030.66;;;25.59;35.50
29121;BME280;16191;49.548;8.658;2023-05-25T12:04:30;101026.75;;;25.92;34.90
29121;BME280;16191;49.548;8.658;2023-05-25T12:07:02;101032.47;;;25.59;35.36
29121;BME280;16191;49.548;8.658;2023-05-25T12:09:29;101023.81;;;25.76;35.74
29121;BME280;16191;49.548;8.658;2023-05-25T12:11:56;101024.09;;;25.73;35.49
29121;BME280;16191;49.548;8.658;2023-05-25T12:14:23;101019.41;;;26.88;35.36
29121;BME280;16191;49.548;8.658;2023-05-25T12:16:51;101018.66;;;26.68;34.22
29121;BME280;16191;49.548;8.658;2023-05-25T12:19:18;101008.31;;;26.55;34.59
29121;BME280;16191;49.548;8.658;2023-05-25T12:21:44;101018.56;;;26.87;34.25
29121;BME280;16191;49.548;8.658;2023-05-25T12:24:11;101008.84;;;26.59;33.25
29121;BME280;16191;49.548;8.658;2023-05-25T12:26:52;101004.44;;;26.68;33.65
29121;BME280;16191;49.548;8.658;2023-05-25T12:29:23;101008.59;;;26.43;33.77
29121;BME280;16191;49.548;8.658;2023-05-25T12:31:51;101003.06;;;27.54;33.01
29121;BME280;16191;49.548;8.658;2023-05-25T12:34:19;100997.34;;;27.67;33.02
29121;BME280;16191;49.548;8.658;2023-05-25T12:36:50;100995.50;;;27.49;33.00
29121;BME280;16191;49.548;8.658;2023-05-25T12:42:00;101002.06;;;27.55;32.80
29121;BME280;16191;49.548;8.658;2023-05-25T12:44:32;100994.28;;;27.61;31.54
29121;BME280;16191;49.548;8.658;2023-05-25T12:49:37;100995.16;;;27.35;32.64
29121;BME280;16191;49.548;8.658;2023-05-25T12:52:04;100982.50;;;28.24;31.59
29121;BME280;16191;49.548;8.658;2023-05-25T12:54:43;100982.78;;;28.81;31.15
29121;BME280;16191;49.548;8.658;2023-05-25T12:57:19;100983.38;;;28.07;31.95
29121;BME280;16191;49.548;8.658;2023-05-25T12:59:46;100988.28;;;28.37;30.99
29121;BME280;16191;49.548;8.658;2023-05-25T13:02:13;100985.56;;;28.97;30.63
29121;BME280;16191;49.548;8.658;2023-05-25T13:04:40;100992.47;;;29.24;29.74
29121;BME280;16191;49.548;8.658;2023-05-25T13:07:08;100985.22;;;29.08;30.42
29121;BME280;16191;49.548;8.658;2023-05-25T13:09:35;100993.94;;;29.02;30.82
29121;BME280;16191;49.548;8.658;2023-05-25T13:12:03;100979.91;;;30.14;29.11
29121;BME280;16191;49.548;8.658;2023-05-25T13:14:30;100981.75;;;28.74;29.85
29121;BME280;16191;49.548;8.658;2023-05-25T13:16:56;100980.97;;;29.56;29.30
29121;BME280;16191;49.548;8.658;2023-05-25T13:19:24;100972.53;;;28.16;30.35
29121;BME280;16191;49.548;8.658;2023-05-25T13:21:51;100976.81;;;28.95;30.04
29121;BME280;16191;49.548;8.658;2023-05-25T13:24:18;100973.78;;;28.90;29.60